sensor_id;sensor_type;location;lat;lon;timestamp;P1;durP1;ratioP1;P2;durP2;ratioP2
71959;SDS011;59832;51.146;14.024;2023-06-10T04:02:32;6.95;;;6.45;;
71959;SDS011;59832;51.146;14.024;2023-06-10T04:04:59;7.57;;;6.70;;
71959;SDS011;59832;51.146;14.024;2023-06-10T04:07:26;6.50;;;5.95;;
71959;SDS011;59832;51.146;14.024;2023-06-10T04:09:56;6.35;;;5.85;;
71959;SDS011;59832;51.146;14.024;2023-06-10T04:12:22;6.40;;;5.68;;
71959;SDS011;59832;51.146;14.024;2023-06-10T04:14:49;11.40;;;5.80;;
71959;SDS011;59832;51.146;14.024;2023-06-10T04:17:15;6.32;;;5.22;;
71959;SDS011;59832;51.146;14.024;2023-06-10T04:19:42;6.55;;;5.18;;
71959;SDS011;59832;51.146;14.024;2023-06-10T04:22:08;5.47;;;4.80;;
71959;SDS011;59832;51.146;14.024;2023-06-10T04:24:35;4.80;;;4.40;;
71959;SDS011;59832;51.146;14.024;2023-06-10T04:27:01;6.50;;;4.90;;
71959;SDS011;59832;51.146;14.024;2023-06-10T04:29:29;4.47;;;4.07;;
71959;SDS011;59832;51.146;14.024;2023-06-10T04:31:55;4.87;;;4.33;;
71959;SDS011;59832;51.146;14.024;2023-06-10T04:34:22;4.93;;;4.50;;
71959;SDS011;59832;51.146;14.024;2023-06-10T04:36:49;5.03;;;4.28;;
71959;SDS011;59832;51.146;14.024;2023-06-10T04:39:17;4.30;;;4.00;;
71959;SDS011;59832;51.146;14.024;2023-06-10T04:41:43;4.97;;;3.90;;
71959;SDS011;59832;51.146;14.024;2023-06-10T04:44:10;4.43;;;4.10;;
71959;SDS011;59832;51.146;14.024;2023-06-10T04:46:37;4.13;;;3.60;;
71959;SDS011;59832;51.146;14.024;2023-06-10T04:49:03;3.72;;;3.38;;
71959;SDS011;59832;51.146;14.024;2023-06-10T04:51:31;3.58;;;3.28;;
71959;SDS011;59832;51.146;14.024;2023-06-10T04:54:00;3.60;;;3.30;;
71959;SDS011;59832;51.146;14.024;2023-06-10T04:56:30;3.17;;;2.97;;
71959;SDS011;59832;51.146;14.024;2023-06-10T04:58:57;3.15;;;2.95;;
71959;SDS011;59832;51.146;14.024;2023-06-10T05:01:23;5.00;;;3.05;;
71959;SDS011;59832;51.146;14.024;2023-06-10T05:03:50;3.40;;;3.10;;
71959;SDS011;59832;51.146;14.024;2023-06-10T05:06:17;3.03;;;2.78;;
71959;SDS011;59832;51.146;14.024;2023-06-10T05:08:43;4.47;;;3.33;;
71959;SDS011;59832;51.146;14.024;2023-06-10T05:11:10;4.65;;;3.45;;
71959;SDS011;59832;51.146;14.024;2023-06-10T05:13:36;3.93;;;3.13;;
71959;SDS011;59832;51.146;14.024;2023-06-10T05:16:03;4.00;;;3.70;;
71959;SDS011;59832;51.146;14.024;2023-06-10T05:18:30;3.95;;;3.55;;
71959;SDS011;59832;51.146;14.024;2023-06-10T05:20:57;6.57;;;2.80;;
71959;SDS011;59832;51.146;14.024;2023-06-10T05:23:23;2.97;;;2.77;;
71959;SDS011;59832;51.146;14.024;2023-06-10T05:25:50;3.30;;;3.08;;
71959;SDS011;59832;51.146;14.024;2023-06-10T05:28:17;6.07;;;3.30;;
71959;SDS011;59832;51.146;14.024;2023-06-10T05:30:43;3.70;;;3.40;;
71959;SDS011;59832;51.146;14.024;2023-06-10T05:33:09;3.47;;;3.15;;
71959;SDS011;59832;51.146;14.024;2023-06-10T05:35:36;4.22;;;3.83;;
71959;SDS011;59832;51.146;14.024;2023-06-10T05:38:02;4.00;;;3.70;;
71959;SDS011;59832;51.146;14.024;2023-06-10T05:40:29;3.92;;;3.63;;
71959;SDS011;59832;51.146;14.024;2023-06-10T05:42:55;3.78;;;3.47;;
71959;SDS011;59832;51.146;14.024;2023-06-10T05:45:22;4.32;;;3.75;;
71959;SDS011;59832;51.146;14.024;2023-06-10T05:47:48;4.18;;;3.88;;
71959;SDS011;59832;51.146;14.024;2023-06-10T05:50:15;4.72;;;3.63;;
71959;SDS011;59832;51.146;14.024;2023-06-10T05:52:41;5.65;;;3.95;;
71959;SDS011;59832;51.146;14.024;2023-06-10T05:55:08;4.05;;;3.75;;
71959;SDS011;59832;51.146;14.024;2023-06-10T05:57:36;4.10;;;3.80;;
71959;SDS011;59832;51.146;14.024;2023-06-10T06:00:02;4.70;;;4.30;;
71959;SDS011;59832;51.146;14.024;2023-06-10T06:02:29;5.28;;;3.58;;
71959;SDS011;59832;51.146;14.024;2023-06-10T06:04:56;4.00;;;3.60;;
71959;SDS011;59832;51.146;14.024;2023-06-10T06:07:22;4.47;;;3.55;;
71959;SDS011;59832;51.146;14.024;2023-06-10T06:09:49;3.45;;;3.10;;
71959;SDS011;59832;51.146;14.024;2023-06-10T06:12:15;3.85;;;3.50;;
71959;SDS011;59832;51.146;14.024;2023-06-10T06:14:42;3.83;;;3.53;;
71959;SDS011;59832;51.146;14.024;2023-06-10T06:17:08;4.30;;;3.30;;
71959;SDS011;59832;51.146;14.024;2023-06-10T06:19:35;3.30;;;3.10;;
71959;SDS011;59832;51.146;14.024;2023-06-10T06:22:03;4.13;;;3.72;;
71959;SDS011;59832;51.146;14.024;2023-06-10T06:24:30;4.38;;;3.97;;
71959;SDS011;59832;51.146;14.024;2023-06-10T06:26:58;3.70;;;3.40;;
71959;SDS011;59832;51.146;14.024;2023-06-10T06:29:24;4.03;;;3.70;;
71959;SDS011;59832;51.146;14.024;2023-06-10T06:31:51;4.43;;;3.78;;
71959;SDS011;59832;51.146;14.024;2023-06-10T06:34:17;5.15;;;3.78;;
71959;SDS011;59832;51.146;14.024;2023-06-10T06:36:44;4.60;;;4.20;;
71959;SDS011;59832;51.146;14.024;2023-06-10T06:39:11;3.85;;;3.55;;
71959;SDS011;59832;51.146;14.024;2023-06-10T06:41:38;4.50;;;4.10;;
71959;SDS011;59832;51.146;14.024;2023-06-10T06:46:30;6.00;;;4.50;;
71959;SDS011;59832;51.146;14.024;2023-06-10T06:48:57;4.38;;;4.05;;
71959;SDS011;59832;51.146;14.024;2023-06-10T06:51:24;4.32;;;3.95;;
71959;SDS011;59832;51.146;14.024;2023-06-10T06:53:50;4.53;;;4.13;;
71959;SDS011;59832;51.146;14.024;2023-06-10T06:56:17;4.63;;;4.22;;
71959;SDS011;59832;51.146;14.024;2023-06-10T06:58:43;4.50;;;4.10;;
71959;SDS011;59832;51.146;14.024;2023-06-10T07:01:10;5.10;;;4.45;;
71959;SDS011;59832;51.146;14.024;2023-06-10T07:03:36;4.53;;;4.13;;
71959;SDS011;59832;51.146;14.024;2023-06-10T07:06:03;4.13;;;3.63;;
71959;SDS011;59832;51.146;14.024;2023-06-10T07:08:29;4.00;;;3.70;;
71959;SDS011;59832;51.146;14.024;2023-06-10T07:10:56;5.20;;;4.18;;
71959;SDS011;59832;51.146;14.024;2023-06-10T07:13:22;3.75;;;3.45;;
71959;SDS011;59832;51.146;14.024;2023-06-10T07:15:49;4.30;;;3.25;;
71959;SDS011;59832;51.146;14.024;2023-06-10T07:18:15;6.72;;;3.67;;
71959;SDS011;59832;51.146;14.024;2023-06-10T07:20:45;4.30;;;4.00;;
71959;SDS011;59832;51.146;14.024;2023-06-10T07:23:11;4.15;;;3.78;;
71959;SDS011;59832;51.146;14.024;2023-06-10T07:25:38;4.40;;;4.00;;
71959;SDS011;59832;51.146;14.024;2023-06-10T07:28:04;3.92;;;3.63;;
71959;SDS011;59832;51.146;14.024;2023-06-10T07:30:31;4.00;;;3.70;;
71959;SDS011;59832;51.146;14.024;2023-06-10T07:32:57;4.68;;;3.63;;
71959;SDS011;59832;51.146;14.024;2023-06-10T07:35:24;4.32;;;3.92;;
71959;SDS011;59832;51.146;14.024;2023-06-10T07:37:50;3.88;;;3.60;;
71959;SDS011;59832;51.146;14.024;2023-06-10T07:40:17;4.50;;;4.10;;
71959;SDS011;59832;51.146;14.024;2023-06-10T07:42:43;4.45;;;4.05;;
71959;SDS011;59832;51.146;14.024;2023-06-10T07:45:10;4.05;;;3.75;;
71959;SDS011;59832;51.146;14.024;2023-06-10T07:47:37;4.45;;;4.07;;
71959;SDS011;59832;51.146;14.024;2023-06-10T07:50:03;4.47;;;4.07;;
71959;SDS011;59832;51.146;14.024;2023-06-10T07:52:30;6.53;;;4.10;;
71959;SDS011;59832;51.146;14.024;2023-06-10T07:54:57;5.68;;;4.15;;
71959;SDS011;59832;51.146;14.024;2023-06-10T07:57:23;4.22;;;3.58;;
71959;SDS011;59832;51.146;14.024;2023-06-10T07:59:50;5.07;;;4.65;;
71959;SDS011;59832;51.146;14.024;2023-06-10T08:02:17;4.82;;;4.35;;
71959;SDS011;59832;51.146;14.024;2023-06-10T08:04:43;5.25;;;4.75;;
71959;SDS011;59832;51.146;14.024;2023-06-10T08:07:09;6.78;;;4.47;;
71959;SDS011;59832;51.146;14.024;2023-06-10T08:09:36;4.68;;;4.28;;
71959;SDS011;59832;51.146;14.024;2023-06-10T08:12:02;5.80;;;4.57;;
71959;SDS011;59832;51.146;14.024;2023-06-10T08:14:29;5.70;;;4.65;;
71959;SDS011;59832;51.146;14.024;2023-06-10T08:16:56;6.35;;;4.68;;
71959;SDS011;59832;51.146;14.024;2023-06-10T08:19:22;7.35;;;4.63;;
71959;SDS011;59832;51.146;14.024;2023-06-10T08:21:49;4.65;;;4.35;;
71959;SDS011;59832;51.146;14.024;2023-06-10T08:24:15;4.22;;;3.92;;
71959;SDS011;59832;51.146;14.024;2023-06-10T08:26:44;5.03;;;4.63;;
71959;SDS011;59832;51.146;14.024;2023-06-10T08:29:11;5.18;;;4.60;;
71959;SDS011;59832;51.146;14.024;2023-06-10T08:31:42;4.80;;;4.15;;
71959;SDS011;59832;51.146;14.024;2023-06-10T08:34:09;5.00;;;4.50;;
71959;SDS011;59832;51.146;14.024;2023-06-10T08:36:36;5.22;;;4.35;;
71959;SDS011;59832;51.146;14.024;2023-06-10T08:39:03;4.88;;;4.05;;
71959;SDS011;59832;51.146;14.024;2023-06-10T08:41:30;5.07;;;4.38;;
71959;SDS011;59832;51.146;14.024;2023-06-10T08:44:08;5.05;;;4.10;;
71959;SDS011;59832;51.146;14.024;2023-06-10T08:46:38;4.68;;;4.28;;
71959;SDS011;59832;51.146;14.024;2023-06-10T08:49:09;4.50;;;4.10;;
71959;SDS011;59832;51.146;14.024;2023-06-10T08:51:37;5.47;;;4.20;;
71959;SDS011;59832;51.146;14.024;2023-06-10T08:54:24;4.78;;;4.38;;
71959;SDS011;59832;51.146;14.024;2023-06-10T08:56:53;4.55;;;4.15;;
71959;SDS011;59832;51.146;14.024;2023-06-10T08:59:21;4.00;;;3.70;;
71959;SDS011;59832;51.146;14.024;2023-06-10T09:01:48;4.30;;;3.90;;
71959;SDS011;59832;51.146;14.024;2023-06-10T09:04:16;4.45;;;4.15;;
71959;SDS011;59832;51.146;14.024;2023-06-10T09:06:44;4.95;;;3.95;;
71959;SDS011;59832;51.146;14.024;2023-06-10T09:09:11;4.88;;;4.38;;
71959;SDS011;59832;51.146;14.024;2023-06-10T09:11:41;5.30;;;4.80;;
71959;SDS011;59832;51.146;14.024;2023-06-10T09:14:08;5.43;;;4.75;;
71959;SDS011;59832;51.146;14.024;2023-06-10T09:16:37;7.65;;;4.47;;
71959;SDS011;59832;51.146;14.024;2023-06-10T09:19:04;5.38;;;4.10;;
71959;SDS011;59832;51.146;14.024;2023-06-10T09:21:34;5.50;;;4.20;;
71959;SDS011;59832;51.146;14.024;2023-06-10T09:24:05;7.35;;;4.38;;
71959;SDS011;59832;51.146;14.024;2023-06-10T09:26:31;8.57;;;4.20;;
71959;SDS011;59832;51.146;14.024;2023-06-10T09:29:04;5.55;;;4.40;;
71959;SDS011;59832;51.146;14.024;2023-06-10T09:31:34;6.55;;;4.10;;
71959;SDS011;59832;51.146;14.024;2023-06-10T09:34:08;4.35;;;4.05;;
71959;SDS011;59832;51.146;14.024;2023-06-10T09:39:13;5.07;;;4.43;;
71959;SDS011;59832;51.146;14.024;2023-06-10T09:41:42;5.22;;;4.55;;
71959;SDS011;59832;51.146;14.024;2023-06-10T09:44:18;4.78;;;4.28;;
71959;SDS011;59832;51.146;14.024;2023-06-10T09:46:46;4.63;;;4.22;;
71959;SDS011;59832;51.146;14.024;2023-06-10T09:49:15;5.07;;;4.57;;
71959;SDS011;59832;51.146;14.024;2023-06-10T09:51:49;6.22;;;4.28;;
71959;SDS011;59832;51.146;14.024;2023-06-10T09:54:17;5.35;;;4.80;;
71959;SDS011;59832;51.146;14.024;2023-06-10T09:56:46;4.97;;;4.50;;
71959;SDS011;59832;51.146;14.024;2023-06-10T09:59:29;5.95;;;4.88;;
71959;SDS011;59832;51.146;14.024;2023-06-10T10:01:58;5.15;;;4.72;;
71959;SDS011;59832;51.146;14.024;2023-06-10T10:04:27;4.50;;;4.18;;
71959;SDS011;59832;51.146;14.024;2023-06-10T10:06:54;4.53;;;4.22;;
71959;SDS011;59832;51.146;14.024;2023-06-10T10:09:21;5.15;;;4.65;;
71959;SDS011;59832;51.146;14.024;2023-06-10T10:11:47;5.32;;;4.65;;
71959;SDS011;59832;51.146;14.024;2023-06-10T10:14:15;4.88;;;4.57;;
71959;SDS011;59832;51.146;14.024;2023-06-10T10:16:43;5.78;;;4.53;;
71959;SDS011;59832;51.146;14.024;2023-06-10T10:19:16;5.00;;;4.28;;
71959;SDS011;59832;51.146;14.024;2023-06-10T10:21:50;5.10;;;4.53;;
71959;SDS011;59832;51.146;14.024;2023-06-10T10:24:23;5.15;;;4.70;;
71959;SDS011;59832;51.146;14.024;2023-06-10T10:26:57;5.85;;;4.30;;
71959;SDS011;59832;51.146;14.024;2023-06-10T10:29:29;4.63;;;4.28;;
71959;SDS011;59832;51.146;14.024;2023-06-10T10:31:57;7.35;;;3.63;;
71959;SDS011;59832;51.146;14.024;2023-06-10T10:34:30;4.38;;;4.07;;
71959;SDS011;59832;51.146;14.024;2023-06-10T10:36:59;5.43;;;3.90;;
71959;SDS011;59832;51.146;14.024;2023-06-10T10:41:54;4.80;;;4.20;;
71959;SDS011;59832;51.146;14.024;2023-06-10T10:44:23;5.85;;;4.00;;
71959;SDS011;59832;51.146;14.024;2023-06-10T10:46:50;4.35;;;3.97;;
71959;SDS011;59832;51.146;14.024;2023-06-10T10:49:17;5.70;;;3.92;;
71959;SDS011;59832;51.146;14.024;2023-06-10T10:51:57;5.38;;;4.13;;
71959;SDS011;59832;51.146;14.024;2023-06-10T10:54:28;4.60;;;3.75;;
71959;SDS011;59832;51.146;14.024;2023-06-10T10:59:46;5.70;;;4.28;;
71959;SDS011;59832;51.146;14.024;2023-06-10T11:02:18;8.88;;;4.10;;
71959;SDS011;59832;51.146;14.024;2023-06-10T11:04:58;4.78;;;4.00;;
71959;SDS011;59832;51.146;14.024;2023-06-10T11:07:25;4.30;;;3.90;;
71959;SDS011;59832;51.146;14.024;2023-06-10T11:13:09;6.20;;;4.88;;
71959;SDS011;59832;51.146;14.024;2023-06-10T11:15:32;5.07;;;4.57;;
71959;SDS011;59832;51.146;14.024;2023-06-10T11:20:43;6.95;;;4.28;;
71959;SDS011;59832;51.146;14.024;2023-06-10T11:26:11;6.50;;;4.53;;
71959;SDS011;59832;51.146;14.024;2023-06-10T11:28:38;5.25;;;4.57;;
71959;SDS011;59832;51.146;14.024;2023-06-10T11:31:05;4.65;;;4.00;;
71959;SDS011;59832;51.146;14.024;2023-06-10T11:33:32;4.85;;;4.45;;
71959;SDS011;59832;51.146;14.024;2023-06-10T11:35:58;4.43;;;4.10;;
71959;SDS011;59832;51.146;14.024;2023-06-10T11:38:25;7.40;;;4.65;;
71959;SDS011;59832;51.146;14.024;2023-06-10T11:40:52;5.63;;;4.38;;
71959;SDS011;59832;51.146;14.024;2023-06-10T11:43:19;5.15;;;4.65;;
71959;SDS011;59832;51.146;14.024;2023-06-10T11:45:46;6.10;;;4.70;;
71959;SDS011;59832;51.146;14.024;2023-06-10T11:48:12;5.55;;;4.82;;
71959;SDS011;59832;51.146;14.024;2023-06-10T11:50:39;4.82;;;4.43;;
71959;SDS011;59832;51.146;14.024;2023-06-10T11:53:08;5.10;;;4.57;;
71959;SDS011;59832;51.146;14.024;2023-06-10T11:55:41;6.07;;;4.53;;
71959;SDS011;59832;51.146;14.024;2023-06-10T11:58:15;5.35;;;4.20;;
71959;SDS011;59832;51.146;14.024;2023-06-10T12:00:52;4.60;;;4.15;;
71959;SDS011;59832;51.146;14.024;2023-06-10T12:03:20;4.22;;;3.75;;
71959;SDS011;59832;51.146;14.024;2023-06-10T12:06:01;4.90;;;4.30;;
71959;SDS011;59832;51.146;14.024;2023-06-10T12:08:29;4.70;;;4.30;;
71959;SDS011;59832;51.146;14.024;2023-06-10T12:10:56;5.00;;;3.95;;
71959;SDS011;59832;51.146;14.024;2023-06-10T12:13:25;4.70;;;4.18;;
71959;SDS011;59832;51.146;14.024;2023-06-10T12:15:52;4.90;;;4.50;;
71959;SDS011;59832;51.146;14.024;2023-06-10T12:18:22;4.65;;;4.25;;
71959;SDS011;59832;51.146;14.024;2023-06-10T12:20:50;6.53;;;4.32;;
71959;SDS011;59832;51.146;14.024;2023-06-10T12:23:17;7.10;;;4.30;;
71959;SDS011;59832;51.146;14.024;2023-06-10T12:25:51;5.35;;;4.88;;
71959;SDS011;59832;51.146;14.024;2023-06-10T12:28:25;5.93;;;4.38;;
71959;SDS011;59832;51.146;14.024;2023-06-10T12:31:14;5.93;;;4.50;;
71959;SDS011;59832;51.146;14.024;2023-06-10T12:33:39;5.03;;;4.60;;
71959;SDS011;59832;51.146;14.024;2023-06-10T12:36:05;4.85;;;4.45;;
71959;SDS011;59832;51.146;14.024;2023-06-10T12:38:42;4.40;;;4.07;;
71959;SDS011;59832;51.146;14.024;2023-06-10T12:41:10;3.95;;;3.65;;
71959;SDS011;59832;51.146;14.024;2023-06-10T12:46:09;4.55;;;4.15;;
71959;SDS011;59832;51.146;14.024;2023-06-10T12:48:36;4.55;;;4.25;;
71959;SDS011;59832;51.146;14.024;2023-06-10T12:51:03;4.80;;;4.32;;
71959;SDS011;59832;51.146;14.024;2023-06-10T12:53:32;4.70;;;4.30;;
71959;SDS011;59832;51.146;14.024;2023-06-10T12:55:58;4.93;;;4.43;;
71959;SDS011;59832;51.146;14.024;2023-06-10T12:58:27;4.72;;;4.32;;
71959;SDS011;59832;51.146;14.024;2023-06-10T13:00:54;4.78;;;4.28;;
71959;SDS011;59832;51.146;14.024;2023-06-10T13:03:21;3.75;;;3.40;;
71959;SDS011;59832;51.146;14.024;2023-06-10T13:05:47;3.90;;;3.60;;
71959;SDS011;59832;51.146;14.024;2023-06-10T13:08:14;4.35;;;3.95;;
71959;SDS011;59832;51.146;14.024;2023-06-10T13:10:41;5.45;;;3.55;;
71959;SDS011;59832;51.146;14.024;2023-06-10T13:13:08;4.18;;;3.53;;
71959;SDS011;59832;51.146;14.024;2023-06-10T13:15:36;3.10;;;2.90;;
71959;SDS011;59832;51.146;14.024;2023-06-10T13:18:08;7.68;;;3.40;;
71959;SDS011;59832;51.146;14.024;2023-06-10T13:20:35;3.42;;;3.10;;
71959;SDS011;59832;51.146;14.024;2023-06-10T13:23:02;5.03;;;3.13;;
71959;SDS011;59832;51.146;14.024;2023-06-10T13:25:28;3.58;;;3.28;;
71959;SDS011;59832;51.146;14.024;2023-06-10T13:27:55;3.30;;;3.10;;
71959;SDS011;59832;51.146;14.024;2023-06-10T13:30:21;3.67;;;3.15;;
71959;SDS011;59832;51.146;14.024;2023-06-10T13:32:48;3.50;;;3.20;;
71959;SDS011;59832;51.146;14.024;2023-06-10T13:35:14;3.35;;;3.05;;
71959;SDS011;59832;51.146;14.024;2023-06-10T13:37:41;3.08;;;2.88;;
71959;SDS011;59832;51.146;14.024;2023-06-10T13:40:08;5.43;;;3.35;;
71959;SDS011;59832;51.146;14.024;2023-06-10T13:42:35;3.53;;;3.22;;
71959;SDS011;59832;51.146;14.024;2023-06-10T13:45:03;3.67;;;3.22;;
71959;SDS011;59832;51.146;14.024;2023-06-10T13:47:30;3.95;;;3.60;;
71959;SDS011;59832;51.146;14.024;2023-06-10T13:49:57;6.75;;;3.10;;
71959;SDS011;59832;51.146;14.024;2023-06-10T13:52:23;3.80;;;3.50;;
71959;SDS011;59832;51.146;14.024;2023-06-10T13:54:50;4.65;;;3.50;;
71959;SDS011;59832;51.146;14.024;2023-06-10T13:57:16;5.25;;;2.95;;
71959;SDS011;59832;51.146;14.024;2023-06-10T13:59:43;3.40;;;3.10;;
71959;SDS011;59832;51.146;14.024;2023-06-10T14:02:10;3.50;;;3.20;;
71959;SDS011;59832;51.146;14.024;2023-06-10T14:04:36;4.25;;;3.30;;
71959;SDS011;59832;51.146;14.024;2023-06-10T14:07:03;4.18;;;3.45;;
71959;SDS011;59832;51.146;14.024;2023-06-10T14:09:29;3.25;;;2.95;;
71959;SDS011;59832;51.146;14.024;2023-06-10T14:11:56;3.72;;;3.42;;
71959;SDS011;59832;51.146;14.024;2023-06-10T14:14:23;3.38;;;3.10;;
71959;SDS011;59832;51.146;14.024;2023-06-10T14:16:49;3.88;;;3.58;;
71959;SDS011;59832;51.146;14.024;2023-06-10T14:19:16;3.55;;;3.25;;
71959;SDS011;59832;51.146;14.024;2023-06-10T14:21:42;3.67;;;3.38;;
71959;SDS011;59832;51.146;14.024;2023-06-10T14:24:09;5.28;;;3.30;;
71959;SDS011;59832;51.146;14.024;2023-06-10T14:26:35;3.88;;;3.20;;
71959;SDS011;59832;51.146;14.024;2023-06-10T14:29:02;6.22;;;3.65;;
71959;SDS011;59832;51.146;14.024;2023-06-10T14:31:28;3.63;;;3.33;;
71959;SDS011;59832;51.146;14.024;2023-06-10T14:33:55;4.90;;;3.58;;
71959;SDS011;59832;51.146;14.024;2023-06-10T14:36:21;3.50;;;3.20;;
71959;SDS011;59832;51.146;14.024;2023-06-10T14:38:48;3.97;;;3.67;;
71959;SDS011;59832;51.146;14.024;2023-06-10T14:41:14;4.97;;;3.58;;
71959;SDS011;59832;51.146;14.024;2023-06-10T14:43:41;4.72;;;3.60;;
71959;SDS011;59832;51.146;14.024;2023-06-10T14:46:07;4.10;;;3.70;;
71959;SDS011;59832;51.146;14.024;2023-06-10T14:48:34;4.10;;;3.70;;
71959;SDS011;59832;51.146;14.024;2023-06-10T14:51:00;3.90;;;3.50;;
71959;SDS011;59832;51.146;14.024;2023-06-10T14:53:28;6.47;;;3.70;;
71959;SDS011;59832;51.146;14.024;2023-06-10T14:55:54;5.47;;;3.80;;
71959;SDS011;59832;51.146;14.024;2023-06-10T14:58:21;4.20;;;3.90;;
71959;SDS011;59832;51.146;14.024;2023-06-10T15:00:47;7.03;;;3.85;;
71959;SDS011;59832;51.146;14.024;2023-06-10T15:03:14;5.15;;;4.00;;
71959;SDS011;59832;51.146;14.024;2023-06-10T15:05:40;5.22;;;4.45;;
71959;SDS011;59832;51.146;14.024;2023-06-10T15:08:07;4.95;;;4.50;;
71959;SDS011;59832;51.146;14.024;2023-06-10T15:13:00;4.57;;;4.18;;
71959;SDS011;59832;51.146;14.024;2023-06-10T15:15:26;4.68;;;3.88;;
71959;SDS011;59832;51.146;14.024;2023-06-10T15:17:53;5.95;;;3.78;;
71959;SDS011;59832;51.146;14.024;2023-06-10T15:20:20;3.72;;;3.50;;
71959;SDS011;59832;51.146;14.024;2023-06-10T15:22:46;3.83;;;3.38;;
71959;SDS011;59832;51.146;14.024;2023-06-10T15:27:43;5.07;;;4.05;;
71959;SDS011;59832;51.146;14.024;2023-06-10T15:30:10;5.70;;;3.60;;
71959;SDS011;59832;51.146;14.024;2023-06-10T15:32:36;3.72;;;3.42;;
71959;SDS011;59832;51.146;14.024;2023-06-10T15:35:03;4.85;;;3.58;;
71959;SDS011;59832;51.146;14.024;2023-06-10T15:37:29;5.65;;;3.47;;
71959;SDS011;59832;51.146;14.024;2023-06-10T15:39:56;7.13;;;4.05;;
71959;SDS011;59832;51.146;14.024;2023-06-10T15:42:22;4.10;;;3.80;;
71959;SDS011;59832;51.146;14.024;2023-06-10T15:44:50;4.45;;;3.70;;
71959;SDS011;59832;51.146;14.024;2023-06-10T15:47:19;5.47;;;3.83;;
71959;SDS011;59832;51.146;14.024;2023-06-10T15:49:46;4.95;;;3.63;;
71959;SDS011;59832;51.146;14.024;2023-06-10T15:52:13;4.05;;;3.65;;
71959;SDS011;59832;51.146;14.024;2023-06-10T15:54:39;4.63;;;3.95;;
71959;SDS011;59832;51.146;14.024;2023-06-10T15:57:06;4.22;;;3.85;;
71959;SDS011;59832;51.146;14.024;2023-06-10T15:59:34;4.32;;;3.78;;
71959;SDS011;59832;51.146;14.024;2023-06-10T16:02:01;4.05;;;3.67;;
71959;SDS011;59832;51.146;14.024;2023-06-10T16:04:27;4.60;;;3.83;;
71959;SDS011;59832;51.146;14.024;2023-06-10T16:06:53;6.30;;;3.88;;
71959;SDS011;59832;51.146;14.024;2023-06-10T16:09:20;3.92;;;3.63;;
71959;SDS011;59832;51.146;14.024;2023-06-10T16:11:47;3.97;;;3.65;;
71959;SDS011;59832;51.146;14.024;2023-06-10T16:14:13;5.10;;;3.75;;
71959;SDS011;59832;51.146;14.024;2023-06-10T16:16:40;4.63;;;4.15;;
71959;SDS011;59832;51.146;14.024;2023-06-10T16:19:06;4.22;;;3.92;;
71959;SDS011;59832;51.146;14.024;2023-06-10T16:21:33;4.55;;;3.97;;
71959;SDS011;59832;51.146;14.024;2023-06-10T16:23:59;4.43;;;4.03;;
71959;SDS011;59832;51.146;14.024;2023-06-10T16:26:26;8.13;;;4.30;;
71959;SDS011;59832;51.146;14.024;2023-06-10T16:28:53;4.55;;;4.15;;
71959;SDS011;59832;51.146;14.024;2023-06-10T16:31:19;5.72;;;4.05;;
71959;SDS011;59832;51.146;14.024;2023-06-10T16:36:13;8.13;;;4.20;;
71959;SDS011;59832;51.146;14.024;2023-06-10T16:38:39;8.40;;;4.47;;
71959;SDS011;59832;51.146;14.024;2023-06-10T16:45:59;4.97;;;4.05;;
71959;SDS011;59832;51.146;14.024;2023-06-10T16:48:26;6.43;;;4.30;;
71959;SDS011;59832;51.146;14.024;2023-06-10T16:50:52;8.63;;;4.75;;
71959;SDS011;59832;51.146;14.024;2023-06-10T16:53:19;4.28;;;3.90;;
71959;SDS011;59832;51.146;14.024;2023-06-10T16:55:45;5.15;;;4.65;;
71959;SDS011;59832;51.146;14.024;2023-06-10T16:58:12;4.90;;;4.40;;
71959;SDS011;59832;51.146;14.024;2023-06-10T17:00:38;5.38;;;3.90;;
71959;SDS011;59832;51.146;14.024;2023-06-10T17:03:07;5.40;;;4.25;;
71959;SDS011;59832;51.146;14.024;2023-06-10T17:05:34;5.57;;;4.15;;
71959;SDS011;59832;51.146;14.024;2023-06-10T17:08:01;4.78;;;4.38;;
71959;SDS011;59832;51.146;14.024;2023-06-10T17:10:27;4.53;;;4.13;;
71959;SDS011;59832;51.146;14.024;2023-06-10T17:12:54;6.72;;;4.25;;
71959;SDS011;59832;51.146;14.024;2023-06-10T17:15:21;6.18;;;4.10;;
71959;SDS011;59832;51.146;14.024;2023-06-10T17:17:47;5.75;;;4.32;;
71959;SDS011;59832;51.146;14.024;2023-06-10T17:20:15;5.18;;;4.43;;
71959;SDS011;59832;51.146;14.024;2023-06-10T17:22:42;4.50;;;4.10;;
71959;SDS011;59832;51.146;14.024;2023-06-10T17:25:09;6.30;;;4.22;;
71959;SDS011;59832;51.146;14.024;2023-06-10T17:27:36;6.57;;;4.03;;
71959;SDS011;59832;51.146;14.024;2023-06-10T17:30:02;4.07;;;3.80;;
71959;SDS011;59832;51.146;14.024;2023-06-10T17:32:29;5.03;;;4.25;;
71959;SDS011;59832;51.146;14.024;2023-06-10T17:34:57;4.38;;;3.50;;
71959;SDS011;59832;51.146;14.024;2023-06-10T17:37:23;4.65;;;4.25;;
71959;SDS011;59832;51.146;14.024;2023-06-10T17:39:49;6.47;;;3.90;;
71959;SDS011;59832;51.146;14.024;2023-06-10T17:42:16;5.05;;;3.80;;
71959;SDS011;59832;51.146;14.024;2023-06-10T17:44:42;4.43;;;3.78;;
71959;SDS011;59832;51.146;14.024;2023-06-10T17:47:09;4.82;;;4.13;;
71959;SDS011;59832;51.146;14.024;2023-06-10T17:49:36;4.53;;;4.13;;
71959;SDS011;59832;51.146;14.024;2023-06-10T17:52:02;5.50;;;4.25;;
71959;SDS011;59832;51.146;14.024;2023-06-10T17:54:29;4.80;;;4.40;;
71959;SDS011;59832;51.146;14.024;2023-06-10T17:56:55;6.45;;;4.43;;
71959;SDS011;59832;51.146;14.024;2023-06-10T17:59:22;4.90;;;4.50;;
71959;SDS011;59832;51.146;14.024;2023-06-10T18:01:48;4.95;;;4.40;;
71959;SDS011;59832;51.146;14.024;2023-06-10T18:04:15;6.88;;;4.60;;
71959;SDS011;59832;51.146;14.024;2023-06-10T18:06:41;4.82;;;4.32;;
71959;SDS011;59832;51.146;14.024;2023-06-10T18:09:08;7.78;;;4.25;;
71959;SDS011;59832;51.146;14.024;2023-06-10T18:11:38;4.50;;;4.03;;
71959;SDS011;59832;51.146;14.024;2023-06-10T18:14:04;6.07;;;4.85;;
71959;SDS011;59832;51.146;14.024;2023-06-10T18:16:31;5.57;;;4.72;;
71959;SDS011;59832;51.146;14.024;2023-06-10T18:18:57;6.20;;;5.15;;
71959;SDS011;59832;51.146;14.024;2023-06-10T18:21:24;5.10;;;4.60;;
71959;SDS011;59832;51.146;14.024;2023-06-10T18:23:50;6.20;;;5.07;;
71959;SDS011;59832;51.146;14.024;2023-06-10T18:26:17;7.82;;;4.78;;
71959;SDS011;59832;51.146;14.024;2023-06-10T18:28:43;7.28;;;5.03;;
71959;SDS011;59832;51.146;14.024;2023-06-10T18:31:10;5.60;;;4.30;;
71959;SDS011;59832;51.146;14.024;2023-06-10T18:33:37;5.13;;;4.70;;
71959;SDS011;59832;51.146;14.024;2023-06-10T18:36:03;8.35;;;4.80;;
71959;SDS011;59832;51.146;14.024;2023-06-10T18:38:30;15.98;;;8.40;;
71959;SDS011;59832;51.146;14.024;2023-06-10T18:40:57;11.95;;;7.38;;
71959;SDS011;59832;51.146;14.024;2023-06-10T18:43:23;9.80;;;6.82;;
71959;SDS011;59832;51.146;14.024;2023-06-10T18:45:50;6.00;;;5.40;;
71959;SDS011;59832;51.146;14.024;2023-06-10T18:48:16;9.70;;;5.53;;
71959;SDS011;59832;51.146;14.024;2023-06-10T18:50:43;6.60;;;5.65;;
71959;SDS011;59832;51.146;14.024;2023-06-10T18:53:09;8.40;;;5.68;;
71959;SDS011;59832;51.146;14.024;2023-06-10T18:55:36;6.22;;;5.63;;
71959;SDS011;59832;51.146;14.024;2023-06-10T18:58:02;7.43;;;5.63;;
71959;SDS011;59832;51.146;14.024;2023-06-10T19:00:30;6.68;;;5.00;;
71959;SDS011;59832;51.146;14.024;2023-06-10T19:02:57;7.05;;;5.50;;
71959;SDS011;59832;51.146;14.024;2023-06-10T19:05:24;6.60;;;5.85;;
71959;SDS011;59832;51.146;14.024;2023-06-10T19:07:50;8.32;;;6.38;;
71959;SDS011;59832;51.146;14.024;2023-06-10T19:12:45;11.38;;;7.07;;